NORTHEAST SUFFOLK  -  Rip Current Statement Rip Current Statement        NORTHERN NASSAU  -  Rip Current Statement Rip Current Statement        NORTHERN QUEENS  -  Rip Current Statement Rip Current Statement     Air Quality Alert Air Quality Alert        NORTHWEST SUFFOLK  -  Rip Current Statement Rip Current Statement        SOUTHEAST SUFFOLK  -  Rip Current Statement Rip Current Statement        SOUTHERN NASSAU  -  Rip Current Statement Rip Current Statement        SOUTHERN QUEENS  -  Rip Current Statement Rip Current Statement     Air Quality Alert Air Quality Alert        SOUTHWEST SUFFOLK  -  Rip Current Statement Rip Current Statement      

Active alerts

Northern Queens
  Details for Northern Queens Rip Current Statement  +1 additional alert
Southern Queens
  Details for Southern Queens Rip Current Statement  +1 additional alert
Northern Nassau
  Details for Northern Nassau Rip Current Statement
Southern Nassau
  Details for Southern Nassau Rip Current Statement
Northwest Suffolk
  Details for Northwest Suffolk Rip Current Statement
Southwest Suffolk
  Details for Southwest Suffolk Rip Current Statement
Northeast Suffolk
  Details for Northeast Suffolk Rip Current Statement
Southeast Suffolk
  Details for Southeast Suffolk Rip Current Statement


WXM80 ListenWXM80 Stop

You find our weather info also at:

UK Metoffice

WeatherCloud

Weather Underground

Northeastern Weather Network

AWEKAS

Citizen Weather Observer Program (CWOP)

HAMweather, WeatherForYou, PWS Weather


Weather Underground History page Text

Daily Summary for January 20, 2017 Units:  Both    English   Metric
« Previous Day
Next Day »
Daily Weekly Monthly Yearly Custom
  High: Low: Average:
Temperature: 42.5 °F /  5.8 °C 39.3 °F /  4.1 °C 40.8 °F /  4.9 °C
Dew Point: 38.9 °F /  3.8 °C 34.1 °F /  1.2 °C 36.5 °F /  2.5 °C
Humidity: 94 % 77 % 85 %
Wind Speed: 5.0 mph /  8 km/h - 0.9 mph /  1.4 km/h
Wind Gust: 8.0 mph /  12.9 km/h - -
Wind:- - East
Pressure: 30.01 in /  1016.1 hPa 29.88 in /  1011.7 hPa -
Precipitation: 0.00 in /  0 mm    
Historical Graphs
 
 
Tabular Data for January 20, 2017
Time Temperature Dew Point Pressure Wind Wind Speed Wind Gust Humidity Rainfall Rate (Hourly)
00:05 40.9 °F /  4.9 °C 34.9 °F /  1.6 °C 29.99 in /  1015.5 hPa NNE 2.2 mph /  3.5 km/h 5.0 mph /  8 km/h 79 % 0.00 in /  0 mm
00:10 40.9 °F /  4.9 °C 34.9 °F /  1.6 °C 30.00 in /  1015.8 hPa NNE 3.3 mph /  5.3 km/h 5.0 mph /  8 km/h 79 % 0.00 in /  0 mm
00:15 40.9 °F /  4.9 °C 35.5 °F /  1.9 °C 30.00 in /  1015.8 hPa NNE 5.0 mph /  8 km/h 6.9 mph /  11.1 km/h 81 % 0.00 in /  0 mm
00:20 40.8 °F /  4.9 °C 35.4 °F /  1.9 °C 30.00 in /  1015.8 hPa NE 1.9 mph /  3.1 km/h 3.5 mph /  5.6 km/h 81 % 0.00 in /  0 mm
00:25 40.8 °F /  4.9 °C 35.7 °F /  2.1 °C 30.00 in /  1015.8 hPa NE 1.5 mph /  2.4 km/h 3.5 mph /  5.6 km/h 82 % 0.00 in /  0 mm
00:30 40.8 °F /  4.9 °C 35.7 °F /  2.1 °C 30.00 in /  1015.8 hPa East 2.1 mph /  3.4 km/h 7.0 mph /  11.3 km/h 82 % 0.00 in /  0 mm
00:35 40.7 °F /  4.8 °C 35.0 °F /  1.7 °C 30.00 in /  1015.8 hPa ENE 4.2 mph /  6.8 km/h 6.0 mph /  9.7 km/h 80 % 0.00 in /  0 mm
00:40 40.6 °F /  4.8 °C 34.6 °F /  1.4 °C 30.00 in /  1015.8 hPa ENE 1.8 mph /  2.9 km/h 3.5 mph /  5.6 km/h 79 % 0.00 in /  0 mm
00:45 40.6 °F /  4.8 °C 34.6 °F /  1.4 °C 30.01 in /  1016.1 hPa ENE 2.6 mph /  4.2 km/h 3.5 mph /  5.6 km/h 79 % 0.00 in /  0 mm
00:50 40.6 °F /  4.8 °C 34.6 °F /  1.4 °C 30.01 in /  1016.1 hPa NNE 2.9 mph /  4.7 km/h 5.8 mph /  9.3 km/h 79 % 0.00 in /  0 mm
00:51 40.6 °F /  4.8 °C 34.6 °F /  1.4 °C 30.01 in /  1016.1 hPa NNE 2.1 mph /  3.4 km/h 3.5 mph /  5.6 km/h 79 % 0.00 in /  0 mm
00:56 40.6 °F /  4.8 °C 34.6 °F /  1.4 °C 30.01 in /  1016.1 hPa NNE 0.1 mph /  0.2 km/h 1.0 mph /  1.6 km/h 79 % 0.00 in /  0 mm
01:01 40.6 °F /  4.8 °C 34.6 °F /  1.4 °C 30.01 in /  1016.1 hPa NNE 1.6 mph /  2.6 km/h 3.0 mph /  4.8 km/h 79 % 0.00 in /  0 mm
01:06 40.6 °F /  4.8 °C 34.6 °F /  1.4 °C 30.01 in /  1016.1 hPa NNE 1.9 mph /  3.1 km/h 3.5 mph /  5.6 km/h 79 % 0.00 in /  0 mm
01:11 40.6 °F /  4.8 °C 34.3 °F /  1.3 °C 30.01 in /  1016.1 hPa NNE 0.4 mph /  0.6 km/h 2.3 mph /  3.7 km/h 78 % 0.00 in /  0 mm
01:16 40.6 °F /  4.8 °C 34.6 °F /  1.4 °C 30.01 in /  1016.1 hPa NNE 0.3 mph /  0.5 km/h 2.3 mph /  3.7 km/h 79 % 0.00 in /  0 mm
01:21 40.5 °F /  4.7 °C 34.5 °F /  1.4 °C 30.01 in /  1016.1 hPa NNE 0.2 mph /  0.3 km/h 1.2 mph /  1.9 km/h 79 % 0.00 in /  0 mm
01:26 40.5 °F /  4.7 °C 34.5 °F /  1.4 °C 30.01 in /  1016.1 hPa NNE 2.4 mph /  3.9 km/h 3.5 mph /  5.6 km/h 79 % 0.00 in /  0 mm
01:31 40.5 °F /  4.7 °C 34.5 °F /  1.4 °C 30.01 in /  1016.1 hPa NNE 0.2 mph /  0.3 km/h 3.0 mph /  4.8 km/h 79 % 0.00 in /  0 mm
01:37 40.5 °F /  4.7 °C 34.5 °F /  1.4 °C 30.01 in /  1016.1 hPa NNE 0.2 mph /  0.3 km/h 2.3 mph /  3.7 km/h 79 % 0.00 in /  0 mm
01:42 40.5 °F /  4.7 °C 34.5 °F /  1.4 °C 30.01 in /  1016.1 hPa Calm   1.2 mph /  1.9 km/h 79 % 0.00 in /  0 mm
01:47 40.4 °F /  4.7 °C 34.4 °F /  1.3 °C 30.01 in /  1016.1 hPa NNE 0.8 mph /  1.3 km/h 2.3 mph /  3.7 km/h 79 % 0.00 in /  0 mm
01:52 40.4 °F /  4.7 °C 34.4 °F /  1.3 °C 30.01 in /  1016.1 hPa NNE 0.1 mph /  0.2 km/h   79 % 0.00 in /  0 mm
01:57 40.4 °F /  4.7 °C 34.4 °F /  1.3 °C 30.01 in /  1016.1 hPa Calm   1.2 mph /  1.9 km/h 79 % 0.00 in /  0 mm
02:02 40.4 °F /  4.7 °C 34.1 °F /  1.2 °C 30.01 in /  1016.1 hPa Calm     78 % 0.00 in /  0 mm
02:07 40.4 °F /  4.7 °C 34.4 °F /  1.3 °C 30.01 in /  1016.1 hPa Calm     79 % 0.00 in /  0 mm
02:12 40.3 °F /  4.6 °C 34.3 °F /  1.3 °C 30.01 in /  1016.1 hPa Calm     79 % 0.00 in /  0 mm
02:17 40.3 °F /  4.6 °C 34.3 °F /  1.3 °C 30.01 in /  1016.1 hPa Calm     79 % 0.00 in /  0 mm
02:22 40.3 °F /  4.6 °C 34.3 °F /  1.3 °C 30.01 in /  1016.1 hPa Calm     79 % 0.00 in /  0 mm
02:27 40.3 °F /  4.6 °C 34.6 °F /  1.4 °C 30.01 in /  1016.1 hPa Calm     80 % 0.00 in /  0 mm
02:32 40.3 °F /  4.6 °C 34.6 °F /  1.4 °C 30.00 in /  1015.8 hPa Calm     80 % 0.00 in /  0 mm
02:37 40.3 °F /  4.6 °C 34.6 °F /  1.4 °C 30.00 in /  1015.8 hPa Calm     80 % 0.00 in /  0 mm
02:42 40.3 °F /  4.6 °C 34.6 °F /  1.4 °C 30.00 in /  1015.8 hPa NNE 0.1 mph /  0.2 km/h 1.2 mph /  1.9 km/h 80 % 0.00 in /  0 mm
02:47 40.3 °F /  4.6 °C 34.9 °F /  1.6 °C 30.00 in /  1015.8 hPa Calm     81 % 0.00 in /  0 mm
02:52 40.2 °F /  4.6 °C 34.8 °F /  1.6 °C 30.00 in /  1015.8 hPa Calm   1.2 mph /  1.9 km/h 81 % 0.00 in /  0 mm
02:57 40.2 °F /  4.6 °C 34.5 °F /  1.4 °C 30.00 in /  1015.8 hPa Calm     80 % 0.00 in /  0 mm
03:03 40.2 °F /  4.6 °C 34.5 °F /  1.4 °C 30.00 in /  1015.8 hPa Calm     80 % 0.00 in /  0 mm
03:08 40.1 °F /  4.5 °C 34.4 °F /  1.3 °C 30.00 in /  1015.8 hPa Calm     80 % 0.00 in /  0 mm
03:13 40.2 °F /  4.6 °C 34.5 °F /  1.4 °C 30.00 in /  1015.8 hPa Calm     80 % 0.00 in /  0 mm
03:18 40.1 °F /  4.5 °C 34.4 °F /  1.3 °C 30.00 in /  1015.8 hPa Calm     80 % 0.00 in /  0 mm
03:23 40.2 °F /  4.6 °C 34.8 °F /  1.6 °C 30.00 in /  1015.8 hPa Calm     81 % 0.00 in /  0 mm
03:28 40.1 °F /  4.5 °C 34.7 °F /  1.5 °C 30.00 in /  1015.8 hPa Calm   1.2 mph /  1.9 km/h 81 % 0.00 in /  0 mm
03:33 40.1 °F /  4.5 °C 34.7 °F /  1.5 °C 30.00 in /  1015.8 hPa North 0.7 mph /  1.1 km/h 2.3 mph /  3.7 km/h 81 % 0.00 in /  0 mm
03:38 40.1 °F /  4.5 °C 34.7 °F /  1.5 °C 30.01 in /  1016.1 hPa North 0.1 mph /  0.2 km/h 1.2 mph /  1.9 km/h 81 % 0.00 in /  0 mm
03:43 40.1 °F /  4.5 °C 34.7 °F /  1.5 °C 30.00 in /  1015.8 hPa North 0.1 mph /  0.2 km/h 1.2 mph /  1.9 km/h 81 % 0.00 in /  0 mm
03:48 40.1 °F /  4.5 °C 34.7 °F /  1.5 °C 30.00 in /  1015.8 hPa Calm     81 % 0.00 in /  0 mm
03:53 40.0 °F /  4.4 °C 34.6 °F /  1.4 °C 30.00 in /  1015.8 hPa NNW 0.5 mph /  0.8 km/h 2.3 mph /  3.7 km/h 81 % 0.00 in /  0 mm
03:58 40.0 °F /  4.4 °C 34.6 °F /  1.4 °C 30.00 in /  1015.8 hPa NNW 0.7 mph /  1.1 km/h 3.0 mph /  4.8 km/h 81 % 0.00 in /  0 mm
04:03 40.0 °F /  4.4 °C 34.9 °F /  1.6 °C 30.00 in /  1015.8 hPa WNW 0.3 mph /  0.5 km/h 1.2 mph /  1.9 km/h 82 % 0.00 in /  0 mm
04:08 40.0 °F /  4.4 °C 34.9 °F /  1.6 °C 30.00 in /  1015.8 hPa Calm   1.2 mph /  1.9 km/h 82 % 0.00 in /  0 mm
04:13 40.0 °F /  4.4 °C 34.9 °F /  1.6 °C 29.99 in /  1015.5 hPa Calm     82 % 0.00 in /  0 mm
04:18 40.0 °F /  4.4 °C 34.9 °F /  1.6 °C 29.99 in /  1015.5 hPa Calm   1.2 mph /  1.9 km/h 82 % 0.00 in /  0 mm
04:23 40.0 °F /  4.4 °C 34.9 °F /  1.6 °C 29.99 in /  1015.5 hPa Calm     82 % 0.00 in /  0 mm
04:29 40.0 °F /  4.4 °C 34.9 °F /  1.6 °C 29.99 in /  1015.5 hPa WNW 0.8 mph /  1.3 km/h 2.3 mph /  3.7 km/h 82 % 0.00 in /  0 mm
04:34 40.0 °F /  4.4 °C 34.9 °F /  1.6 °C 29.99 in /  1015.5 hPa WNW 0.7 mph /  1.1 km/h 3.5 mph /  5.6 km/h 82 % 0.00 in /  0 mm
04:39 39.9 °F /  4.4 °C 34.9 °F /  1.6 °C 29.99 in /  1015.5 hPa WNW 1.0 mph /  1.6 km/h 2.3 mph /  3.7 km/h 82 % 0.00 in /  0 mm
04:44 39.9 °F /  4.4 °C 34.9 °F /  1.6 °C 29.99 in /  1015.5 hPa Calm   1.2 mph /  1.9 km/h 82 % 0.00 in /  0 mm
04:49 39.9 °F /  4.4 °C 34.9 °F /  1.6 °C 29.99 in /  1015.5 hPa Calm     82 % 0.00 in /  0 mm
04:54 39.9 °F /  4.4 °C 34.9 °F /  1.6 °C 29.99 in /  1015.5 hPa Calm   2.0 mph /  3.2 km/h 82 % 0.00 in /  0 mm
04:59 39.9 °F /  4.4 °C 34.5 °F /  1.4 °C 29.99 in /  1015.5 hPa Calm     81 % 0.00 in /  0 mm
05:04 39.8 °F /  4.3 °C 34.4 °F /  1.3 °C 29.99 in /  1015.5 hPa WNW 1.0 mph /  1.6 km/h 2.3 mph /  3.7 km/h 81 % 0.00 in /  0 mm
05:09 39.8 °F /  4.3 °C 34.4 °F /  1.3 °C 29.99 in /  1015.5 hPa Calm     81 % 0.00 in /  0 mm
05:14 39.8 °F /  4.3 °C 34.8 °F /  1.6 °C 29.99 in /  1015.5 hPa Calm     82 % 0.00 in /  0 mm
05:19 39.8 °F /  4.3 °C 34.8 °F /  1.6 °C 29.99 in /  1015.5 hPa Calm     82 % 0.00 in /  0 mm
05:24 39.8 °F /  4.3 °C 34.8 °F /  1.6 °C 29.99 in /  1015.5 hPa Calm     82 % 0.00 in /  0 mm
05:29 39.7 °F /  4.3 °C 34.7 °F /  1.5 °C 29.99 in /  1015.5 hPa Calm     82 % 0.00 in /  0 mm
05:34 39.7 °F /  4.3 °C 34.7 °F /  1.5 °C 29.99 in /  1015.5 hPa Calm     82 % 0.00 in /  0 mm
05:39 39.7 °F /  4.3 °C 34.7 °F /  1.5 °C 29.99 in /  1015.5 hPa Calm     82 % 0.00 in /  0 mm
05:44 39.7 °F /  4.3 °C 34.7 °F /  1.5 °C 29.98 in /  1015.1 hPa Calm     82 % 0.00 in /  0 mm
05:49 39.7 °F /  4.3 °C 34.7 °F /  1.5 °C 29.98 in /  1015.1 hPa WNW 0.2 mph /  0.3 km/h 1.2 mph /  1.9 km/h 82 % 0.00 in /  0 mm
05:54 39.6 °F /  4.2 °C 34.9 °F /  1.6 °C 29.98 in /  1015.1 hPa Calm     83 % 0.00 in /  0 mm
06:00 39.6 °F /  4.2 °C 34.9 °F /  1.6 °C 29.99 in /  1015.5 hPa Calm     83 % 0.00 in /  0 mm
06:05 39.6 °F /  4.2 °C 34.9 °F /  1.6 °C 29.99 in /  1015.5 hPa Calm     83 % 0.00 in /  0 mm
06:10 39.6 °F /  4.2 °C 34.9 °F /  1.6 °C 29.98 in /  1015.1 hPa Calm     83 % 0.00 in /  0 mm
06:15 39.5 °F /  4.2 °C 34.8 °F /  1.6 °C 29.99 in /  1015.5 hPa Calm     83 % 0.00 in /  0 mm
06:20 39.6 °F /  4.2 °C 34.9 °F /  1.6 °C 29.99 in /  1015.5 hPa Calm     83 % 0.00 in /  0 mm
06:25 39.5 °F /  4.2 °C 34.8 °F /  1.6 °C 29.99 in /  1015.5 hPa Calm     83 % 0.00 in /  0 mm
06:30 39.5 °F /  4.2 °C 34.8 °F /  1.6 °C 29.98 in /  1015.1 hPa Calm     83 % 0.00 in /  0 mm
06:35 39.5 °F /  4.2 °C 34.8 °F /  1.6 °C 29.98 in /  1015.1 hPa Calm     83 % 0.00 in /  0 mm
06:40 39.5 °F /  4.2 °C 34.8 °F /  1.6 °C 29.98 in /  1015.1 hPa Calm   1.2 mph /  1.9 km/h 83 % 0.00 in /  0 mm
06:45 39.5 °F /  4.2 °C 34.8 °F /  1.6 °C 29.98 in /  1015.1 hPa North 0.5 mph /  0.8 km/h 2.3 mph /  3.7 km/h 83 % 0.00 in /  0 mm
06:50 39.5 °F /  4.2 °C 35.1 °F /  1.7 °C 29.98 in /  1015.1 hPa North 0.2 mph /  0.3 km/h 1.2 mph /  1.9 km/h 84 % 0.00 in /  0 mm
06:55 39.4 °F /  4.1 °C 35.0 °F /  1.7 °C 29.98 in /  1015.1 hPa ENE 2.1 mph /  3.4 km/h 3.5 mph /  5.6 km/h 84 % 0.00 in /  0 mm
07:00 39.3 °F /  4.1 °C 34.6 °F /  1.4 °C 29.98 in /  1015.1 hPa ENE 2.2 mph /  3.5 km/h 3.5 mph /  5.6 km/h 83 % 0.00 in /  0 mm
07:05 39.3 °F /  4.1 °C 34.6 °F /  1.4 °C 29.98 in /  1015.1 hPa ENE 2.5 mph /  4 km/h 3.5 mph /  5.6 km/h 83 % 0.00 in /  0 mm
07:10 39.4 °F /  4.1 °C 34.4 °F /  1.3 °C 29.98 in /  1015.1 hPa ENE 2.1 mph /  3.4 km/h 3.5 mph /  5.6 km/h 82 % 0.00 in /  0 mm
07:15 39.5 °F /  4.2 °C 34.8 °F /  1.6 °C 29.97 in /  1014.8 hPa ENE 1.1 mph /  1.8 km/h 3.0 mph /  4.8 km/h 83 % 0.00 in /  0 mm
07:21 39.5 °F /  4.2 °C 35.1 °F /  1.7 °C 29.98 in /  1015.1 hPa ENE 1.2 mph /  1.9 km/h 3.5 mph /  5.6 km/h 84 % 0.00 in /  0 mm
07:26 39.6 °F /  4.2 °C 35.2 °F /  1.8 °C 29.98 in /  1015.1 hPa ENE 0.5 mph /  0.8 km/h 2.3 mph /  3.7 km/h 84 % 0.00 in /  0 mm
07:31 39.6 °F /  4.2 °C 35.2 °F /  1.8 °C 29.98 in /  1015.1 hPa ENE 2.9 mph /  4.7 km/h 3.5 mph /  5.6 km/h 84 % 0.00 in /  0 mm
07:36 39.7 °F /  4.3 °C 35.3 °F /  1.8 °C 29.98 in /  1015.1 hPa NE 2.4 mph /  3.9 km/h 3.5 mph /  5.6 km/h 84 % 0.00 in /  0 mm
07:41 39.7 °F /  4.3 °C 35.3 °F /  1.8 °C 29.98 in /  1015.1 hPa NE 1.7 mph /  2.7 km/h 3.5 mph /  5.6 km/h 84 % 0.00 in /  0 mm
07:46 39.7 °F /  4.3 °C 35.0 °F /  1.7 °C 29.98 in /  1015.1 hPa ENE 1.5 mph /  2.4 km/h 3.5 mph /  5.6 km/h 83 % 0.00 in /  0 mm
07:51 39.7 °F /  4.3 °C 35.0 °F /  1.7 °C 29.98 in /  1015.1 hPa ENE 1.0 mph /  1.6 km/h 2.3 mph /  3.7 km/h 83 % 0.00 in /  0 mm
07:56 39.8 °F /  4.3 °C 35.1 °F /  1.7 °C 29.98 in /  1015.1 hPa ENE 0.8 mph /  1.3 km/h 2.3 mph /  3.7 km/h 83 % 0.00 in /  0 mm
08:01 39.8 °F /  4.3 °C 35.4 °F /  1.9 °C 29.98 in /  1015.1 hPa ENE 0.7 mph /  1.1 km/h 2.3 mph /  3.7 km/h 84 % 0.00 in /  0 mm
08:06 39.9 °F /  4.4 °C 35.5 °F /  1.9 °C 29.98 in /  1015.1 hPa NE 1.4 mph /  2.3 km/h 3.5 mph /  5.6 km/h 84 % 0.00 in /  0 mm
08:11 39.9 °F /  4.4 °C 35.2 °F /  1.8 °C 29.98 in /  1015.1 hPa NE 1.2 mph /  1.9 km/h 2.3 mph /  3.7 km/h 83 % 0.00 in /  0 mm
08:16 40.0 °F /  4.4 °C 35.3 °F /  1.8 °C 29.98 in /  1015.1 hPa NE 1.9 mph /  3.1 km/h 3.0 mph /  4.8 km/h 83 % 0.00 in /  0 mm
08:21 40.1 °F /  4.5 °C 35.4 °F /  1.9 °C 29.98 in /  1015.1 hPa ENE 0.2 mph /  0.3 km/h 1.2 mph /  1.9 km/h 83 % 0.00 in /  0 mm
08:26 40.1 °F /  4.5 °C 35.7 °F /  2.1 °C 29.98 in /  1015.1 hPa ENE 0.2 mph /  0.3 km/h 1.2 mph /  1.9 km/h 84 % 0.00 in /  0 mm
08:31 40.2 °F /  4.6 °C 35.8 °F /  2.1 °C 29.99 in /  1015.5 hPa Calm   1.2 mph /  1.9 km/h 84 % 0.00 in /  0 mm
08:36 40.3 °F /  4.6 °C 35.8 °F /  2.1 °C 29.99 in /  1015.5 hPa ENE 0.1 mph /  0.2 km/h 2.3 mph /  3.7 km/h 84 % 0.00 in /  0 mm
08:41 40.3 °F /  4.6 °C 35.8 °F /  2.1 °C 29.98 in /  1015.1 hPa ENE 0.9 mph /  1.4 km/h 2.0 mph /  3.2 km/h 84 % 0.00 in /  0 mm
08:47 40.4 °F /  4.7 °C 35.6 °F /  2 °C 29.99 in /  1015.5 hPa ENE 1.4 mph /  2.3 km/h 3.5 mph /  5.6 km/h 83 % 0.00 in /  0 mm
08:52 40.4 °F /  4.7 °C 35.6 °F /  2 °C 29.98 in /  1015.1 hPa ENE 2.3 mph /  3.7 km/h 4.0 mph /  6.4 km/h 83 % 0.00 in /  0 mm
08:57 40.5 °F /  4.7 °C 35.7 °F /  2.1 °C 29.98 in /  1015.1 hPa ENE 0.8 mph /  1.3 km/h 2.3 mph /  3.7 km/h 83 % 0.00 in /  0 mm
09:02 40.5 °F /  4.7 °C 36.0 °F /  2.2 °C 29.98 in /  1015.1 hPa ENE 1.9 mph /  3.1 km/h 3.5 mph /  5.6 km/h 84 % 0.00 in /  0 mm
09:07 40.6 °F /  4.8 °C 35.8 °F /  2.1 °C 29.99 in /  1015.5 hPa ENE 1.6 mph /  2.6 km/h 3.5 mph /  5.6 km/h 83 % 0.00 in /  0 mm
09:12 40.7 °F /  4.8 °C 35.9 °F /  2.2 °C 30.00 in /  1015.8 hPa ENE 2.8 mph /  4.5 km/h 3.5 mph /  5.6 km/h 83 % 0.00 in /  0 mm
09:17 40.8 °F /  4.9 °C 35.7 °F /  2.1 °C 29.99 in /  1015.5 hPa ENE 2.0 mph /  3.2 km/h 3.5 mph /  5.6 km/h 82 % 0.00 in /  0 mm
09:22 40.8 °F /  4.9 °C 35.7 °F /  2.1 °C 29.99 in /  1015.5 hPa ENE 1.7 mph /  2.7 km/h 4.0 mph /  6.4 km/h 82 % 0.00 in /  0 mm
09:27 40.9 °F /  4.9 °C 35.8 °F /  2.1 °C 29.99 in /  1015.5 hPa ENE 1.8 mph /  2.9 km/h 3.5 mph /  5.6 km/h 82 % 0.00 in /  0 mm
09:32 41.0 °F /  5 °C 35.9 °F /  2.2 °C 29.99 in /  1015.5 hPa ENE 1.8 mph /  2.9 km/h 3.5 mph /  5.6 km/h 82 % 0.00 in /  0 mm
09:37 41.1 °F /  5.1 °C 35.7 °F /  2.1 °C 29.99 in /  1015.5 hPa ENE 3.3 mph /  5.3 km/h 3.5 mph /  5.6 km/h 81 % 0.00 in /  0 mm
09:42 41.1 °F /  5.1 °C 35.7 °F /  2.1 °C 29.99 in /  1015.5 hPa ENE 2.6 mph /  4.2 km/h 3.5 mph /  5.6 km/h 81 % 0.00 in /  0 mm
09:47 41.2 °F /  5.1 °C 35.5 °F /  1.9 °C 29.99 in /  1015.5 hPa ENE 3.9 mph /  6.3 km/h 4.6 mph /  7.4 km/h 80 % 0.00 in /  0 mm
09:52 41.3 °F /  5.2 °C 35.9 °F /  2.2 °C 29.99 in /  1015.5 hPa ENE 1.2 mph /  1.9 km/h 2.3 mph /  3.7 km/h 81 % 0.00 in /  0 mm
09:57 41.3 °F /  5.2 °C 35.9 °F /  2.2 °C 30.00 in /  1015.8 hPa ENE 0.9 mph /  1.4 km/h 3.5 mph /  5.6 km/h 81 % 0.00 in /  0 mm
09:58 41.3 °F /  5.2 °C 35.9 °F /  2.2 °C 30.00 in /  1015.8 hPa ENE 0.9 mph /  1.4 km/h 3.5 mph /  5.6 km/h 81 % 0.00 in /  0 mm
10:03 41.4 °F /  5.2 °C 36.0 °F /  2.2 °C 30.00 in /  1015.8 hPa ENE 0.5 mph /  0.8 km/h 2.3 mph /  3.7 km/h 81 % 0.00 in /  0 mm
10:08 41.5 °F /  5.3 °C 36.1 °F /  2.3 °C 30.00 in /  1015.8 hPa East 3.0 mph /  4.8 km/h 4.6 mph /  7.4 km/h 81 % 0.00 in /  0 mm
10:13 41.6 °F /  5.3 °C 35.6 °F /  2 °C 30.00 in /  1015.8 hPa East 2.4 mph /  3.9 km/h 3.5 mph /  5.6 km/h 79 % 0.00 in /  0 mm
10:28 41.8 °F /  5.4 °C 35.8 °F /  2.1 °C 29.99 in /  1015.5 hPa East 2.8 mph /  4.5 km/h 4.6 mph /  7.4 km/h 79 % 0.00 in /  0 mm
10:38 42.0 °F /  5.6 °C 36.0 °F /  2.2 °C 29.99 in /  1015.5 hPa ENE 2.1 mph /  3.4 km/h 3.5 mph /  5.6 km/h 79 % 0.00 in /  0 mm
10:43 42.0 °F /  5.6 °C 36.0 °F /  2.2 °C 30.00 in /  1015.8 hPa ENE 1.2 mph /  1.9 km/h 3.5 mph /  5.6 km/h 79 % 0.00 in /  0 mm
10:48 42.0 °F /  5.6 °C 35.6 °F /  2 °C 30.00 in /  1015.8 hPa NE 1.6 mph /  2.6 km/h 3.5 mph /  5.6 km/h 78 % 0.00 in /  0 mm
10:54 42.0 °F /  5.6 °C 35.6 °F /  2 °C 30.00 in /  1015.8 hPa ENE 0.5 mph /  0.8 km/h 3.5 mph /  5.6 km/h 78 % 0.00 in /  0 mm
10:59 42.0 °F /  5.6 °C 35.6 °F /  2 °C 30.00 in /  1015.8 hPa ENE 1.2 mph /  1.9 km/h 3.5 mph /  5.6 km/h 78 % 0.00 in /  0 mm
11:04 42.0 °F /  5.6 °C 35.6 °F /  2 °C 30.00 in /  1015.8 hPa ENE 1.2 mph /  1.9 km/h 3.5 mph /  5.6 km/h 78 % 0.00 in /  0 mm
11:09 42.0 °F /  5.6 °C 35.6 °F /  2 °C 30.00 in /  1015.8 hPa ENE 1.0 mph /  1.6 km/h 2.0 mph /  3.2 km/h 78 % 0.00 in /  0 mm
11:14 42.1 °F /  5.6 °C 36.1 °F /  2.3 °C 30.00 in /  1015.8 hPa Calm   3.0 mph /  4.8 km/h 79 % 0.00 in /  0 mm
11:19 42.2 °F /  5.7 °C 35.5 °F /  1.9 °C 29.99 in /  1015.5 hPa ENE 1.0 mph /  1.6 km/h 3.0 mph /  4.8 km/h 77 % 0.00 in /  0 mm
11:24 42.3 °F /  5.7 °C 35.9 °F /  2.2 °C 29.99 in /  1015.5 hPa ENE 1.0 mph /  1.6 km/h 3.0 mph /  4.8 km/h 78 % 0.00 in /  0 mm
11:29 42.3 °F /  5.7 °C 35.6 °F /  2 °C 29.98 in /  1015.1 hPa ENE 2.0 mph /  3.2 km/h 5.0 mph /  8 km/h 77 % 0.00 in /  0 mm
11:34 42.3 °F /  5.7 °C 35.9 °F /  2.2 °C 29.98 in /  1015.1 hPa ENE 2.0 mph /  3.2 km/h 4.0 mph /  6.4 km/h 78 % 0.00 in /  0 mm
11:39 42.3 °F /  5.7 °C 36.6 °F /  2.6 °C 29.98 in /  1015.1 hPa ENE 2.0 mph /  3.2 km/h 5.0 mph /  8 km/h 80 % 0.00 in /  0 mm
11:44 42.3 °F /  5.7 °C 36.5 °F /  2.5 °C 29.98 in /  1015.1 hPa ENE 2.0 mph /  3.2 km/h 4.0 mph /  6.4 km/h 80 % 0.00 in /  0 mm
11:49 42.2 °F /  5.7 °C 36.2 °F /  2.3 °C 29.98 in /  1015.1 hPa ENE 2.0 mph /  3.2 km/h 4.0 mph /  6.4 km/h 79 % 0.00 in /  0 mm
11:54 42.1 °F /  5.6 °C 36.1 °F /  2.3 °C 29.97 in /  1014.8 hPa ENE 1.0 mph /  1.6 km/h 4.0 mph /  6.4 km/h 79 % 0.00 in /  0 mm
11:59 42.1 °F /  5.6 °C 36.1 °F /  2.3 °C 29.97 in /  1014.8 hPa ENE 3.2 mph /  5.1 km/h 4.6 mph /  7.4 km/h 79 % 0.00 in /  0 mm
12:04 42.0 °F /  5.6 °C 36.3 °F /  2.4 °C 29.97 in /  1014.8 hPa ENE 3.0 mph /  4.8 km/h 6.0 mph /  9.7 km/h 80 % 0.00 in /  0 mm
12:09 42.0 °F /  5.6 °C 36.6 °F /  2.6 °C 29.96 in /  1014.4 hPa ENE 5.0 mph /  8 km/h 8.0 mph /  12.9 km/h 81 % 0.00 in /  0 mm
12:14 41.8 °F /  5.4 °C 36.1 °F /  2.3 °C 29.96 in /  1014.4 hPa ENE 3.0 mph /  4.8 km/h 8.0 mph /  12.9 km/h 80 % 0.00 in /  0 mm
12:19 41.8 °F /  5.4 °C 36.1 °F /  2.3 °C 29.96 in /  1014.4 hPa ENE 3.0 mph /  4.8 km/h 7.0 mph /  11.3 km/h 80 % 0.00 in /  0 mm
12:24 41.7 °F /  5.4 °C 36.0 °F /  2.2 °C 29.95 in /  1014.1 hPa ENE 3.7 mph /  6 km/h 5.0 mph /  8 km/h 80 % 0.00 in /  0 mm
12:29 41.7 °F /  5.4 °C 36.3 °F /  2.4 °C 29.95 in /  1014.1 hPa ENE 5.0 mph /  8 km/h 7.0 mph /  11.3 km/h 81 % 0.00 in /  0 mm
12:34 41.8 °F /  5.4 °C 36.7 °F /  2.6 °C 29.95 in /  1014.1 hPa ENE 3.0 mph /  4.8 km/h 7.0 mph /  11.3 km/h 82 % 0.00 in /  0 mm
12:39 41.9 °F /  5.5 °C 37.1 °F /  2.8 °C 29.95 in /  1014.1 hPa ENE 2.0 mph /  3.2 km/h 7.0 mph /  11.3 km/h 83 % 0.00 in /  0 mm
12:44 42.0 °F /  5.6 °C 37.2 °F /  2.9 °C 29.94 in /  1013.8 hPa ENE 3.0 mph /  4.8 km/h 7.0 mph /  11.3 km/h 83 % 0.00 in /  0 mm
12:49 42.1 °F /  5.6 °C 37.3 °F /  2.9 °C 29.94 in /  1013.8 hPa ENE 3.0 mph /  4.8 km/h 6.0 mph /  9.7 km/h 83 % 0.00 in /  0 mm
12:54 42.2 °F /  5.7 °C 37.4 °F /  3 °C 29.94 in /  1013.8 hPa East 1.0 mph /  1.6 km/h 3.0 mph /  4.8 km/h 83 % 0.00 in /  0 mm
12:59 42.4 °F /  5.8 °C 37.3 °F /  2.9 °C 29.94 in /  1013.8 hPa ENE 2.3 mph /  3.7 km/h 3.5 mph /  5.6 km/h 82 % 0.00 in /  0 mm
13:04 42.5 °F /  5.8 °C 37.4 °F /  3 °C 29.94 in /  1013.8 hPa ENE 4.1 mph /  6.6 km/h 5.0 mph /  8 km/h 82 % 0.00 in /  0 mm
13:09 42.4 °F /  5.8 °C 37.6 °F /  3.1 °C 29.93 in /  1013.4 hPa ENE 2.1 mph /  3.4 km/h 3.5 mph /  5.6 km/h 83 % 0.00 in /  0 mm
13:14 42.3 °F /  5.7 °C 37.5 °F /  3.1 °C 29.93 in /  1013.4 hPa ENE 3.0 mph /  4.8 km/h 5.0 mph /  8 km/h 83 % 0.00 in /  0 mm
13:19 42.2 °F /  5.7 °C 37.4 °F /  3 °C 29.94 in /  1013.8 hPa NE 2.9 mph /  4.7 km/h 3.5 mph /  5.6 km/h 83 % 0.00 in /  0 mm
13:24 42.1 °F /  5.6 °C 37.3 °F /  2.9 °C 29.93 in /  1013.4 hPa NE 2.0 mph /  3.2 km/h 4.6 mph /  7.4 km/h 83 % 0.00 in /  0 mm
13:29 42.0 °F /  5.6 °C 37.2 °F /  2.9 °C 29.93 in /  1013.4 hPa ENE 2.2 mph /  3.5 km/h 5.0 mph /  8 km/h 83 % 0.00 in /  0 mm
13:34 41.8 °F /  5.4 °C 36.7 °F /  2.6 °C 29.93 in /  1013.4 hPa ENE 2.2 mph /  3.5 km/h 3.5 mph /  5.6 km/h 82 % 0.00 in /  0 mm
13:39 41.8 °F /  5.4 °C 37.0 °F /  2.8 °C 29.93 in /  1013.4 hPa ENE 1.6 mph /  2.6 km/h 2.3 mph /  3.7 km/h 83 % 0.00 in /  0 mm
13:44 41.9 °F /  5.5 °C 37.1 °F /  2.8 °C 29.92 in /  1013.1 hPa ENE 1.3 mph /  2.1 km/h 3.5 mph /  5.6 km/h 83 % 0.00 in /  0 mm
13:49 41.9 °F /  5.5 °C 37.1 °F /  2.8 °C 29.92 in /  1013.1 hPa ENE 2.5 mph /  4 km/h 3.5 mph /  5.6 km/h 83 % 0.00 in /  0 mm
13:54 41.8 °F /  5.4 °C 37.0 °F /  2.8 °C 29.92 in /  1013.1 hPa ENE 4.4 mph /  7.1 km/h 7.0 mph /  11.3 km/h 83 % 0.00 in /  0 mm
13:59 41.7 °F /  5.4 °C 37.2 °F /  2.9 °C 29.91 in /  1012.8 hPa ENE 4.4 mph /  7.1 km/h 6.9 mph /  11.1 km/h 84 % 0.00 in /  0 mm
14:04 41.6 °F /  5.3 °C 37.1 °F /  2.8 °C 29.91 in /  1012.8 hPa ENE 3.3 mph /  5.3 km/h 4.6 mph /  7.4 km/h 84 % 0.00 in /  0 mm
14:10 41.6 °F /  5.3 °C 37.1 °F /  2.8 °C 29.91 in /  1012.8 hPa East 2.7 mph /  4.3 km/h 6.0 mph /  9.7 km/h 84 % 0.00 in /  0 mm
14:15 41.6 °F /  5.3 °C 37.4 °F /  3 °C 29.91 in /  1012.8 hPa East 3.6 mph /  5.8 km/h 3.6 mph /  5.8 km/h 85 % 0.00 in /  0 mm
14:20 41.6 °F /  5.3 °C 37.4 °F /  3 °C 29.91 in /  1012.8 hPa ENE 1.8 mph /  2.9 km/h 4.0 mph /  6.4 km/h 85 % 0.00 in /  0 mm
14:25 41.6 °F /  5.3 °C 37.4 °F /  3 °C 29.90 in /  1012.4 hPa ENE 2.5 mph /  4 km/h 4.0 mph /  6.4 km/h 85 % 0.00 in /  0 mm
14:30 41.6 °F /  5.3 °C 37.4 °F /  3 °C 29.90 in /  1012.4 hPa East 1.7 mph /  2.7 km/h 4.6 mph /  7.4 km/h 85 % 0.00 in /  0 mm
14:35 41.6 °F /  5.3 °C 37.4 °F /  3 °C 29.91 in /  1012.8 hPa East 1.9 mph /  3.1 km/h 3.5 mph /  5.6 km/h 85 % 0.00 in /  0 mm
14:40 41.7 °F /  5.4 °C 37.5 °F /  3.1 °C 29.91 in /  1012.8 hPa East 1.7 mph /  2.7 km/h 3.5 mph /  5.6 km/h 85 % 0.00 in /  0 mm
14:45 41.8 °F /  5.4 °C 37.6 °F /  3.1 °C 29.91 in /  1012.8 hPa East 2.0 mph /  3.2 km/h 3.5 mph /  5.6 km/h 85 % 0.00 in /  0 mm
14:50 41.8 °F /  5.4 °C 37.3 °F /  2.9 °C 29.91 in /  1012.8 hPa East 2.5 mph /  4 km/h 4.6 mph /  7.4 km/h 84 % 0.00 in /  0 mm
14:55 41.7 °F /  5.4 °C 37.2 °F /  2.9 °C 29.91 in /  1012.8 hPa ENE 2.0 mph /  3.2 km/h 3.5 mph /  5.6 km/h 84 % 0.00 in /  0 mm
15:00 41.7 °F /  5.4 °C 37.2 °F /  2.9 °C 29.91 in /  1012.8 hPa East 0.8 mph /  1.3 km/h 2.3 mph /  3.7 km/h 84 % 0.00 in /  0 mm
15:05 41.7 °F /  5.4 °C 37.2 °F /  2.9 °C 29.91 in /  1012.8 hPa NE 1.9 mph /  3.1 km/h 3.0 mph /  4.8 km/h 84 % 0.00 in /  0 mm
15:10 41.6 °F /  5.3 °C 37.1 °F /  2.8 °C 29.91 in /  1012.8 hPa ENE 1.7 mph /  2.7 km/h 3.5 mph /  5.6 km/h 84 % 0.00 in /  0 mm
15:15 41.6 °F /  5.3 °C 37.1 °F /  2.8 °C 29.92 in /  1013.1 hPa ENE 2.4 mph /  3.9 km/h 4.0 mph /  6.4 km/h 84 % 0.00 in /  0 mm
15:20 41.6 °F /  5.3 °C 37.1 °F /  2.8 °C 29.91 in /  1012.8 hPa ENE 1.4 mph /  2.3 km/h 3.0 mph /  4.8 km/h 84 % 0.00 in /  0 mm
15:25 41.6 °F /  5.3 °C 37.1 °F /  2.8 °C 29.91 in /  1012.8 hPa NE 0.5 mph /  0.8 km/h 1.2 mph /  1.9 km/h 84 % 0.00 in /  0 mm
15:31 41.6 °F /  5.3 °C 37.1 °F /  2.8 °C 29.92 in /  1013.1 hPa ENE 2.1 mph /  3.4 km/h 3.5 mph /  5.6 km/h 84 % 0.00 in /  0 mm
15:36 41.6 °F /  5.3 °C 37.1 °F /  2.8 °C 29.92 in /  1013.1 hPa ENE 2.1 mph /  3.4 km/h 3.5 mph /  5.6 km/h 84 % 0.00 in /  0 mm
15:41 41.5 °F /  5.3 °C 37.0 °F /  2.8 °C 29.92 in /  1013.1 hPa East 1.8 mph /  2.9 km/h 3.5 mph /  5.6 km/h 84 % 0.00 in /  0 mm
15:46 41.5 °F /  5.3 °C 37.0 °F /  2.8 °C 29.92 in /  1013.1 hPa East 3.3 mph /  5.3 km/h 5.0 mph /  8 km/h 84 % 0.00 in /  0 mm
15:51 41.4 °F /  5.2 °C 36.9 °F /  2.7 °C 29.91 in /  1012.8 hPa East 2.7 mph /  4.3 km/h 5.8 mph /  9.3 km/h 84 % 0.00 in /  0 mm
15:56 41.4 °F /  5.2 °C 37.2 °F /  2.9 °C 29.91 in /  1012.8 hPa East 1.8 mph /  2.9 km/h 4.6 mph /  7.4 km/h 85 % 0.00 in /  0 mm
16:01 41.4 °F /  5.2 °C 37.2 °F /  2.9 °C 29.91 in /  1012.8 hPa East 2.8 mph /  4.5 km/h 4.6 mph /  7.4 km/h 85 % 0.00 in /  0 mm
16:06 41.4 °F /  5.2 °C 37.5 °F /  3.1 °C 29.91 in /  1012.8 hPa East 0.5 mph /  0.8 km/h 2.3 mph /  3.7 km/h 86 % 0.00 in /  0 mm
16:11 41.4 °F /  5.2 °C 37.5 °F /  3.1 °C 29.91 in /  1012.8 hPa East 0.5 mph /  0.8 km/h 1.2 mph /  1.9 km/h 86 % 0.00 in /  0 mm
16:16 41.3 °F /  5.2 °C 37.4 °F /  3 °C 29.92 in /  1013.1 hPa East 0.6 mph /  1 km/h 2.0 mph /  3.2 km/h 86 % 0.00 in /  0 mm
16:21 41.3 °F /  5.2 °C 37.4 °F /  3 °C 29.91 in /  1012.8 hPa East 1.2 mph /  1.9 km/h 2.3 mph /  3.7 km/h 86 % 0.00 in /  0 mm
16:26 41.3 °F /  5.2 °C 37.4 °F /  3 °C 29.91 in /  1012.8 hPa East 0.7 mph /  1.1 km/h 2.3 mph /  3.7 km/h 86 % 0.00 in /  0 mm
16:31 41.3 °F /  5.2 °C 37.4 °F /  3 °C 29.91 in /  1012.8 hPa East 0.5 mph /  0.8 km/h 2.3 mph /  3.7 km/h 86 % 0.00 in /  0 mm
16:36 41.2 °F /  5.1 °C 37.3 °F /  2.9 °C 29.91 in /  1012.8 hPa Calm   1.2 mph /  1.9 km/h 86 % 0.00 in /  0 mm
16:41 41.2 °F /  5.1 °C 37.3 °F /  2.9 °C 29.91 in /  1012.8 hPa East 0.3 mph /  0.5 km/h 2.3 mph /  3.7 km/h 86 % 0.00 in /  0 mm
16:46 41.1 °F /  5.1 °C 37.2 °F /  2.9 °C 29.91 in /  1012.8 hPa East 0.2 mph /  0.3 km/h 1.2 mph /  1.9 km/h 86 % 0.00 in /  0 mm
16:52 41.1 °F /  5.1 °C 37.2 °F /  2.9 °C 29.91 in /  1012.8 hPa East 0.3 mph /  0.5 km/h 1.2 mph /  1.9 km/h 86 % 0.00 in /  0 mm
16:57 41.1 °F /  5.1 °C 37.2 °F /  2.9 °C 29.91 in /  1012.8 hPa East 0.3 mph /  0.5 km/h 1.2 mph /  1.9 km/h 86 % 0.00 in /  0 mm
17:02 41.1 °F /  5.1 °C 37.5 °F /  3.1 °C 29.91 in /  1012.8 hPa East 0.1 mph /  0.2 km/h 1.2 mph /  1.9 km/h 87 % 0.00 in /  0 mm
17:07 41.0 °F /  5 °C 37.4 °F /  3 °C 29.91 in /  1012.8 hPa Calm     87 % 0.00 in /  0 mm
17:12 41.0 °F /  5 °C 37.4 °F /  3 °C 29.91 in /  1012.8 hPa Calm     87 % 0.00 in /  0 mm
17:17 41.0 °F /  5 °C 37.4 °F /  3 °C 29.91 in /  1012.8 hPa Calm     87 % 0.00 in /  0 mm
17:22 41.0 °F /  5 °C 37.4 °F /  3 °C 29.91 in /  1012.8 hPa Calm     87 % 0.00 in /  0 mm
17:27 41.0 °F /  5 °C 37.4 °F /  3 °C 29.91 in /  1012.8 hPa Calm     87 % 0.00 in /  0 mm
17:32 40.9 °F /  4.9 °C 37.3 °F /  2.9 °C 29.91 in /  1012.8 hPa Calm     87 % 0.00 in /  0 mm
17:37 40.9 °F /  4.9 °C 37.3 °F /  2.9 °C 29.91 in /  1012.8 hPa East 0.1 mph /  0.2 km/h 1.2 mph /  1.9 km/h 87 % 0.00 in /  0 mm
17:42 40.9 °F /  4.9 °C 37.3 °F /  2.9 °C 29.91 in /  1012.8 hPa Calm     87 % 0.00 in /  0 mm
17:47 41.0 °F /  5 °C 37.4 °F /  3 °C 29.91 in /  1012.8 hPa Calm     87 % 0.00 in /  0 mm
17:52 41.0 °F /  5 °C 37.4 °F /  3 °C 29.91 in /  1012.8 hPa East 0.4 mph /  0.6 km/h 1.2 mph /  1.9 km/h 87 % 0.00 in /  0 mm
17:57 41.0 °F /  5 °C 37.4 °F /  3 °C 29.91 in /  1012.8 hPa East 0.7 mph /  1.1 km/h 2.3 mph /  3.7 km/h 87 % 0.00 in /  0 mm
18:02 41.0 °F /  5 °C 37.4 °F /  3 °C 29.92 in /  1013.1 hPa ESE 0.3 mph /  0.5 km/h 2.3 mph /  3.7 km/h 87 % 0.00 in /  0 mm
18:07 41.1 °F /  5.1 °C 37.8 °F /  3.2 °C 29.91 in /  1012.8 hPa Calm     88 % 0.00 in /  0 mm
18:13 41.1 °F /  5.1 °C 37.8 °F /  3.2 °C 29.92 in /  1013.1 hPa Calm     88 % 0.00 in /  0 mm
18:18 41.1 °F /  5.1 °C 37.8 °F /  3.2 °C 29.91 in /  1012.8 hPa Calm     88 % 0.00 in /  0 mm
18:23 41.1 °F /  5.1 °C 37.8 °F /  3.2 °C 29.91 in /  1012.8 hPa Calm     88 % 0.00 in /  0 mm
18:28 41.1 °F /  5.1 °C 37.8 °F /  3.2 °C 29.92 in /  1013.1 hPa Calm     88 % 0.00 in /  0 mm
18:33 41.1 °F /  5.1 °C 37.8 °F /  3.2 °C 29.91 in /  1012.8 hPa Calm     88 % 0.00 in /  0 mm
18:38 41.1 °F /  5.1 °C 38.1 °F /  3.4 °C 29.92 in /  1013.1 hPa Calm     89 % 0.00 in /  0 mm
18:43 41.1 °F /  5.1 °C 38.1 °F /  3.4 °C 29.91 in /  1012.8 hPa Calm     89 % 0.00 in /  0 mm
18:48 41.1 °F /  5.1 °C 38.1 °F /  3.4 °C 29.92 in /  1013.1 hPa Calm     89 % 0.00 in /  0 mm
18:53 41.1 °F /  5.1 °C 38.4 °F /  3.6 °C 29.92 in /  1013.1 hPa Calm     90 % 0.00 in /  0 mm
18:58 41.1 °F /  5.1 °C 38.4 °F /  3.6 °C 29.91 in /  1012.8 hPa Calm     90 % 0.00 in /  0 mm
19:03 41.0 °F /  5 °C 38.3 °F /  3.5 °C 29.91 in /  1012.8 hPa Calm     90 % 0.00 in /  0 mm
19:08 40.9 °F /  4.9 °C 38.2 °F /  3.4 °C 29.91 in /  1012.8 hPa Calm     90 % 0.00 in /  0 mm
19:13 40.9 °F /  4.9 °C 38.2 °F /  3.4 °C 29.91 in /  1012.8 hPa Calm     90 % 0.00 in /  0 mm
19:18 40.8 °F /  4.9 °C 38.4 °F /  3.6 °C 29.91 in /  1012.8 hPa Calm     91 % 0.00 in /  0 mm
19:19 40.8 °F /  4.9 °C 38.4 °F /  3.6 °C 29.91 in /  1012.8 hPa Calm     91 % 0.00 in /  0 mm
19:24 40.7 °F /  4.8 °C 38.3 °F /  3.5 °C 29.91 in /  1012.8 hPa Calm     91 % 0.00 in /  0 mm
19:30 40.7 °F /  4.8 °C 38.3 °F /  3.5 °C 29.91 in /  1012.8 hPa Calm     91 % 0.00 in /  0 mm
19:35 40.7 °F /  4.8 °C 38.3 °F /  3.5 °C 29.91 in /  1012.8 hPa Calm     91 % 0.00 in /  0 mm
19:40 40.6 °F /  4.8 °C 38.2 °F /  3.4 °C 29.91 in /  1012.8 hPa Calm     91 % 0.00 in /  0 mm
19:45 40.6 °F /  4.8 °C 38.2 °F /  3.4 °C 29.91 in /  1012.8 hPa Calm     91 % 0.00 in /  0 mm
19:50 40.5 °F /  4.7 °C 38.1 °F /  3.4 °C 29.91 in /  1012.8 hPa Calm     91 % 0.00 in /  0 mm
19:55 40.5 °F /  4.7 °C 38.4 °F /  3.6 °C 29.91 in /  1012.8 hPa Calm     92 % 0.00 in /  0 mm
20:00 40.5 °F /  4.7 °C 38.1 °F /  3.4 °C 29.91 in /  1012.8 hPa Calm     91 % 0.00 in /  0 mm
20:05 40.5 °F /  4.7 °C 38.4 °F /  3.6 °C 29.90 in /  1012.4 hPa Calm     92 % 0.00 in /  0 mm
20:10 40.4 °F /  4.7 °C 38.3 °F /  3.5 °C 29.90 in /  1012.4 hPa Calm     92 % 0.00 in /  0 mm
20:15 40.4 °F /  4.7 °C 38.3 °F /  3.5 °C 29.90 in /  1012.4 hPa Calm     92 % 0.00 in /  0 mm
20:16 40.4 °F /  4.7 °C 38.3 °F /  3.5 °C 29.90 in /  1012.4 hPa Calm     92 % 0.00 in /  0 mm
20:21 40.4 °F /  4.7 °C 38.3 °F /  3.5 °C 29.90 in /  1012.4 hPa Calm     92 % 0.00 in /  0 mm
20:26 40.4 °F /  4.7 °C 38.3 °F /  3.5 °C 29.90 in /  1012.4 hPa Calm     92 % 0.00 in /  0 mm
20:27 40.4 °F /  4.7 °C 38.5 °F /  3.6 °C 29.90 in /  1012.4 hPa Calm     93 % 0.00 in /  0 mm
20:32 40.4 °F /  4.7 °C 38.5 °F /  3.6 °C 29.90 in /  1012.4 hPa Calm     93 % 0.00 in /  0 mm
20:37 40.4 °F /  4.7 °C 38.5 °F /  3.6 °C 29.90 in /  1012.4 hPa Calm     93 % 0.00 in /  0 mm
20:42 40.3 °F /  4.6 °C 38.4 °F /  3.6 °C 29.90 in /  1012.4 hPa Calm     93 % 0.00 in /  0 mm
20:47 40.3 °F /  4.6 °C 38.4 °F /  3.6 °C 29.90 in /  1012.4 hPa Calm     93 % 0.00 in /  0 mm
20:52 40.3 °F /  4.6 °C 38.4 °F /  3.6 °C 29.90 in /  1012.4 hPa Calm     93 % 0.00 in /  0 mm
20:57 40.3 °F /  4.6 °C 38.4 °F /  3.6 °C 29.90 in /  1012.4 hPa Calm     93 % 0.00 in /  0 mm
21:02 40.3 °F /  4.6 °C 38.4 °F /  3.6 °C 29.90 in /  1012.4 hPa Calm     93 % 0.00 in /  0 mm
21:07 40.3 °F /  4.6 °C 38.4 °F /  3.6 °C 29.90 in /  1012.4 hPa Calm     93 % 0.00 in /  0 mm
21:12 40.3 °F /  4.6 °C 38.4 °F /  3.6 °C 29.90 in /  1012.4 hPa Calm     93 % 0.00 in /  0 mm
21:17 40.3 °F /  4.6 °C 38.4 °F /  3.6 °C 29.90 in /  1012.4 hPa Calm     93 % 0.00 in /  0 mm
21:22 40.3 °F /  4.6 °C 38.4 °F /  3.6 °C 29.90 in /  1012.4 hPa Calm     93 % 0.00 in /  0 mm
21:28 40.3 °F /  4.6 °C 38.4 °F /  3.6 °C 29.90 in /  1012.4 hPa Calm     93 % 0.00 in /  0 mm
21:33 40.3 °F /  4.6 °C 38.4 °F /  3.6 °C 29.90 in /  1012.4 hPa Calm     93 % 0.00 in /  0 mm
21:38 40.4 °F /  4.7 °C 38.5 °F /  3.6 °C 29.90 in /  1012.4 hPa Calm     93 % 0.00 in /  0 mm
21:43 40.4 °F /  4.7 °C 38.8 °F /  3.8 °C 29.90 in /  1012.4 hPa Calm     94 % 0.00 in /  0 mm
21:48 40.4 °F /  4.7 °C 38.8 °F /  3.8 °C 29.90 in /  1012.4 hPa Calm     94 % 0.00 in /  0 mm
21:53 40.5 °F /  4.7 °C 38.9 °F /  3.8 °C 29.90 in /  1012.4 hPa Calm     94 % 0.00 in /  0 mm
21:58 40.5 °F /  4.7 °C 38.9 °F /  3.8 °C 29.90 in /  1012.4 hPa ESE 0.5 mph /  0.8 km/h 1.2 mph /  1.9 km/h 94 % 0.00 in /  0 mm
22:03 40.5 °F /  4.7 °C 38.9 °F /  3.8 °C 29.90 in /  1012.4 hPa Calm     94 % 0.00 in /  0 mm
22:08 40.5 °F /  4.7 °C 38.9 °F /  3.8 °C 29.91 in /  1012.8 hPa Calm     94 % 0.00 in /  0 mm
22:13 40.5 °F /  4.7 °C 38.9 °F /  3.8 °C 29.91 in /  1012.8 hPa Calm     94 % 0.00 in /  0 mm
22:18 40.5 °F /  4.7 °C 38.9 °F /  3.8 °C 29.91 in /  1012.8 hPa Calm     94 % 0.00 in /  0 mm
22:23 40.4 °F /  4.7 °C 38.8 °F /  3.8 °C 29.90 in /  1012.4 hPa Calm     94 % 0.00 in /  0 mm
22:28 40.4 °F /  4.7 °C 38.8 °F /  3.8 °C 29.90 in /  1012.4 hPa Calm     94 % 0.01 in /  0.25 mm
22:33 40.4 °F /  4.7 °C 38.8 °F /  3.8 °C 29.90 in /  1012.4 hPa Calm     94 % 0.01 in /  0.25 mm
22:38 40.4 °F /  4.7 °C 38.8 °F /  3.8 °C 29.90 in /  1012.4 hPa Calm     94 % 0.01 in /  0.25 mm
22:43 40.4 °F /  4.7 °C 38.8 °F /  3.8 °C 29.90 in /  1012.4 hPa Calm     94 % 0.01 in /  0.25 mm
22:49 40.4 °F /  4.7 °C 38.8 °F /  3.8 °C 29.90 in /  1012.4 hPa Calm     94 % 0.01 in /  0.25 mm
22:54 40.4 °F /  4.7 °C 38.8 °F /  3.8 °C 29.90 in /  1012.4 hPa Calm     94 % 0.01 in /  0.25 mm
22:59 40.4 °F /  4.7 °C 38.8 °F /  3.8 °C 29.89 in /  1012.1 hPa Calm     94 % 0.01 in /  0.25 mm
23:04 40.4 °F /  4.7 °C 38.8 °F /  3.8 °C 29.89 in /  1012.1 hPa Calm     94 % 0.00 in /  0 mm
23:09 40.5 °F /  4.7 °C 38.9 °F /  3.8 °C 29.89 in /  1012.1 hPa Calm     94 % 0.01 in /  0.25 mm
23:14 40.5 °F /  4.7 °C 38.9 °F /  3.8 °C 29.89 in /  1012.1 hPa Calm     94 % 0.00 in /  0 mm
23:19 40.5 °F /  4.7 °C 38.9 °F /  3.8 °C 29.89 in /  1012.1 hPa Calm     94 % 0.00 in /  0 mm
23:24 40.5 °F /  4.7 °C 38.9 °F /  3.8 °C 29.88 in /  1011.7 hPa Calm     94 % 0.01 in /  0.25 mm
23:29 40.5 °F /  4.7 °C 38.9 °F /  3.8 °C 29.88 in /  1011.7 hPa Calm     94 % 0.00 in /  0 mm
23:34 40.4 °F /  4.7 °C 38.8 °F /  3.8 °C 29.88 in /  1011.7 hPa Calm     94 % 0.00 in /  0 mm
23:39 40.4 °F /  4.7 °C 38.8 °F /  3.8 °C 29.88 in /  1011.7 hPa Calm     94 % 0.01 in /  0.25 mm
23:44 40.4 °F /  4.7 °C 38.8 °F /  3.8 °C 29.88 in /  1011.7 hPa Calm     94 % 0.00 in /  0 mm
23:49 40.4 °F /  4.7 °C 38.8 °F /  3.8 °C 29.88 in /  1011.7 hPa Calm   1.0 mph /  1.6 km/h 94 % 0.00 in /  0 mm
23:54 40.3 °F /  4.6 °C 38.7 °F /  3.7 °C 29.88 in /  1011.7 hPa Calm     94 % 0.00 in /  0 mm
23:59 40.3 °F /  4.6 °C 38.7 °F /  3.7 °C 29.88 in /  1011.7 hPa Calm     94 % 0.01 in /  0.25 mm
Crab Meadow Weather
Compliments of Weather Underground - 3 mb

Script developed by  Jim McMurry - jmcmurry@mwt.net Adapted for the template by  Wim van der Kuil - Leuven-Template.eu

Astronomy: The gravity on Jupiter is 2.6 times that of the Earth.